Time;durP1;ratioP1;P1;durP2;ratioP2;P2;SDS_P1;SDS_P2;PMS_P1;PMS_P2;Temp;Humidity;BMP_temperature;BMP_pressure;BME280_temperature;BME280_humidity;BME280_pressure;Samples;Min_cycle;Max_cycle;Signal;HPM_P1;HPM_P2
2022/12/28 00:03:34;;;;;;;9.13;4.18;;;;;;;;;;8324406;28;20033;-63
2022/12/28 00:07:34;;;;;;;5.82;3.72;;;;;;;;;;8325656;28;20075;-63
2022/12/28 00:11:34;;;;;;;7.85;4.30;;;;;;;;;;8326367;28;20500;-63
2022/12/28 00:15:35;;;;;;;9.65;4.68;;;;;;;;;;8325049;28;20481;-63
2022/12/28 00:19:36;;;;;;;7.85;3.30;;;;;;;;;;8323081;28;20036;-63
2022/12/28 00:23:36;;;;;;;3.97;2.85;;;;;;;;;;8323113;28;20123;-62
2022/12/28 00:27:36;;;;;;;4.45;2.58;;;;;;;;;;8318463;28;20473;-63
2022/12/28 00:31:36;;;;;;;3.67;2.50;;;;;;;;;;8322814;28;20485;-62
2022/12/28 00:35:37;;;;;;;5.55;2.92;;;;;;;;;;8323379;28;20028;-62
2022/12/28 00:39:37;;;;;;;2.95;2.22;;;;;;;;;;8325385;28;20044;-63
2022/12/28 00:43:37;;;;;;;5.27;2.40;;;;;;;;;;8324123;28;20052;-62
2022/12/28 00:47:37;;;;;;;5.03;2.40;;;;;;;;;;8324979;28;20412;-62
2022/12/28 00:51:38;;;;;;;3.53;2.58;;;;;;;;;;8324072;28;20025;-63
2022/12/28 00:55:38;;;;;;;3.72;2.72;;;;;;;;;;8329124;28;20025;-62
2022/12/28 00:59:38;;;;;;;5.07;3.05;;;;;;;;;;8325636;28;20035;-63
2022/12/28 01:03:38;;;;;;;5.90;2.88;;;;;;;;;;8323185;28;20501;-62
2022/12/28 01:07:38;;;;;;;5.00;3.13;;;;;;;;;;8319908;28;20920;-62
2022/12/28 01:11:38;;;;;;;4.90;3.33;;;;;;;;;;8328575;28;20078;-62
2022/12/28 01:15:39;;;;;;;4.90;3.47;;;;;;;;;;8332100;28;20047;-63
2022/12/28 01:19:39;;;;;;;5.05;3.70;;;;;;;;;;8322886;28;20610;-62
2022/12/28 01:23:39;;;;;;;7.53;3.83;;;;;;;;;;8325943;28;20426;-62
2022/12/28 01:27:39;;;;;;;5.67;3.63;;;;;;;;;;8328421;28;20028;-62
2022/12/28 01:31:39;;;;;;;9.40;4.20;;;;;;;;;;8327992;28;20282;-62
2022/12/28 01:35:40;;;;;;;9.18;4.30;;;;;;;;;;8331771;28;20023;-63
2022/12/28 01:39:40;;;;;;;5.85;3.90;;;;;;;;;;8327845;28;20489;-61
2022/12/28 01:43:46;;;;;;;6.35;3.53;;;;;;;;;;8327957;28;20028;-62
2022/12/28 01:47:47;;;;;;;5.55;3.67;;;;;;;;;;8329152;28;20041;-63
2022/12/28 01:51:57;;;;;;;5.97;3.67;;;;;;;;;;8331442;28;20021;-62
2022/12/28 01:55:58;;;;;;;5.25;3.47;;;;;;;;;;8328520;28;20481;-62
2022/12/28 02:00:03;;;;;;;4.70;3.38;;;;;;;;;;8329255;28;20800;-62
2022/12/28 02:04:03;;;;;;;5.78;3.50;;;;;;;;;;8326850;28;20154;-63
2022/12/28 02:08:09;;;;;;;6.88;3.85;;;;;;;;;;8328341;28;21015;-62
2022/12/28 02:12:11;;;;;;;4.72;3.35;;;;;;;;;;8325962;28;20028;-62
2022/12/28 02:16:11;;;;;;;6.38;3.80;;;;;;;;;;8325970;28;20439;-63
2022/12/28 02:20:13;;;;;;;5.10;3.42;;;;;;;;;;8327667;28;20017;-62
2022/12/28 02:24:25;;;;;;;5.53;3.20;;;;;;;;;;8327698;28;20039;-63
2022/12/28 02:28:44;;;;;;;7.40;3.88;;;;;;;;;;8327352;28;20029;-63
2022/12/28 02:32:44;;;;;;;5.47;3.90;;;;;;;;;;8328148;28;20676;-63
2022/12/28 02:37:06;;;;;;;4.15;3.22;;;;;;;;;;8329029;28;20274;-63
2022/12/28 02:41:08;;;;;;;5.57;3.20;;;;;;;;;;8326848;28;20406;-63
2022/12/28 02:54:03;;;;;;;5.65;3.65;;;;;;;;;;8328157;28;20079;-63
2022/12/28 02:58:04;;;;;;;5.38;3.45;;;;;;;;;;8326522;28;20024;-63
2022/12/28 03:02:13;;;;;;;4.78;3.28;;;;;;;;;;8330349;28;20132;-63
2022/12/28 03:11:01;;;;;;;8.35;3.63;;;;;;;;;;8333779;28;20031;-63
2022/12/28 03:15:10;;;;;;;7.30;2.90;;;;;;;;;;8332197;28;20037;-63
2022/12/28 03:32:08;;;;;;;7.30;3.40;;;;;;;;;;8331261;28;20044;-62
2022/12/28 03:36:14;;;;;;;3.85;2.75;;;;;;;;;;8333827;28;20094;-63
2022/12/28 03:40:32;;;;;;;4.35;2.75;;;;;;;;;;8332950;28;20021;-64
2022/12/28 03:44:34;;;;;;;3.67;2.50;;;;;;;;;;8330952;28;20512;-63
2022/12/28 03:48:36;;;;;;;5.25;3.10;;;;;;;;;;8333143;28;20651;-63
2022/12/28 16:16:37;;;;;;;2.13;1.20;;;;;;;;;;8341170;23;20060;-76
2022/12/28 16:20:37;;;;;;;2.97;1.88;;;;;;;;;;8265172;28;20118;-75
2022/12/28 16:24:37;;;;;;;2.50;1.67;;;;;;;;;;8252515;28;20021;-75
2022/12/28 16:28:38;;;;;;;2.25;1.63;;;;;;;;;;8251531;28;20136;-75
2022/12/28 16:32:38;;;;;;;1.65;1.40;;;;;;;;;;8258979;28;20044;-75
2022/12/28 16:36:38;;;;;;;4.15;2.38;;;;;;;;;;8252322;28;20435;-75
2022/12/28 16:40:38;;;;;;;2.15;1.52;;;;;;;;;;8247477;28;20022;-75
2022/12/28 16:44:39;;;;;;;3.42;2.03;;;;;;;;;;8260180;28;20518;-75
2022/12/28 16:48:39;;;;;;;2.88;1.50;;;;;;;;;;8256787;28;20033;-75
2022/12/28 16:52:39;;;;;;;2.42;1.70;;;;;;;;;;8253685;28;20848;-75
2022/12/28 16:56:40;;;;;;;1.30;1.20;;;;;;;;;;8253540;28;20023;-75
2022/12/28 17:00:40;;;;;;;2.03;1.23;;;;;;;;;;8250887;28;20144;-75
2022/12/28 17:04:40;;;;;;;1.52;1.02;;;;;;;;;;8254207;28;20046;-75
2022/12/28 17:08:40;;;;;;;1.52;1.10;;;;;;;;;;8253114;28;20022;-75
2022/12/28 17:12:41;;;;;;;1.88;1.30;;;;;;;;;;8254216;28;20026;-75
2022/12/28 17:16:41;;;;;;;4.00;1.10;;;;;;;;;;8252317;28;20911;-75
2022/12/28 17:20:46;;;;;;;1.25;1.15;;;;;;;;;;8256187;28;20034;-75
2022/12/28 17:24:47;;;;;;;1.63;1.52;;;;;;;;;;8255952;28;20094;-75
2022/12/28 17:28:47;;;;;;;2.60;1.42;;;;;;;;;;8256334;28;20063;-75
2022/12/28 17:32:47;;;;;;;1.50;1.40;;;;;;;;;;8256023;28;20056;-75
2022/12/28 17:36:47;;;;;;;2.67;1.50;;;;;;;;;;8254370;28;20284;-75
2022/12/28 17:40:47;;;;;;;1.30;1.20;;;;;;;;;;8254754;28;20030;-75
2022/12/28 17:44:48;;;;;;;2.03;1.50;;;;;;;;;;8254692;28;20479;-75
2022/12/28 17:48:50;;;;;;;2.58;1.80;;;;;;;;;;8255456;28;20033;-74
2022/12/28 17:52:50;;;;;;;1.52;1.42;;;;;;;;;;8259062;28;20036;-75
2022/12/28 17:56:50;;;;;;;3.72;1.30;;;;;;;;;;8257405;28;20033;-75
2022/12/28 18:00:56;;;;;;;1.27;1.10;;;;;;;;;;8258822;28;20615;-76
2022/12/28 18:04:57;;;;;;;1.83;1.42;;;;;;;;;;8247368;28;20026;-75
2022/12/28 18:08:57;;;;;;;1.48;1.13;;;;;;;;;;8254882;28;20040;-76
2022/12/28 18:12:57;;;;;;;2.10;1.10;;;;;;;;;;8257191;28;20061;-76
2022/12/28 18:16:57;;;;;;;1.83;1.05;;;;;;;;;;8256304;28;20274;-75
2022/12/28 18:21:06;;;;;;;3.75;1.25;;;;;;;;;;8255912;28;20037;-75
2022/12/28 18:25:06;;;;;;;1.45;1.20;;;;;;;;;;8255625;28;20134;-76
2022/12/28 18:29:06;;;;;;;1.85;1.30;;;;;;;;;;8255394;28;20034;-75
2022/12/28 18:33:07;;;;;;;2.47;1.77;;;;;;;;;;8253691;28;20042;-75
2022/12/28 18:37:07;;;;;;;1.88;1.42;;;;;;;;;;8255466;28;20273;-75
2022/12/28 18:41:09;;;;;;;1.70;1.48;;;;;;;;;;8257761;28;20030;-75
2022/12/28 18:45:09;;;;;;;2.70;1.55;;;;;;;;;;8257352;28;20030;-76
2022/12/28 18:49:09;;;;;;;0.98;0.98;;;;;;;;;;8257856;28;20081;-75
2022/12/28 18:53:10;;;;;;;1.77;1.50;;;;;;;;;;8257062;28;20065;-75
2022/12/28 18:57:11;;;;;;;1.42;1.10;;;;;;;;;;8257730;28;20032;-76
2022/12/28 19:01:11;;;;;;;3.15;1.30;;;;;;;;;;8257100;28;20034;-75
2022/12/28 19:05:11;;;;;;;1.55;1.40;;;;;;;;;;8252721;28;20017;-75
2022/12/28 19:09:12;;;;;;;1.87;1.30;;;;;;;;;;8257723;28;20030;-76
2022/12/28 19:13:12;;;;;;;2.45;1.10;;;;;;;;;;8252793;28;20324;-75
2022/12/28 19:17:12;;;;;;;1.63;1.40;;;;;;;;;;8257203;28;20092;-75
2022/12/28 19:21:32;;;;;;;1.98;1.35;;;;;;;;;;8252714;28;20505;-75
2022/12/28 19:25:32;;;;;;;1.95;1.27;;;;;;;;;;8255379;28;20033;-75
2022/12/28 19:29:32;;;;;;;2.72;1.55;;;;;;;;;;8254560;28;20028;-76
2022/12/28 19:33:33;;;;;;;1.98;1.23;;;;;;;;;;8256767;28;20033;-75
2022/12/28 19:37:33;;;;;;;2.20;1.70;;;;;;;;;;8252617;28;20099;-76
2022/12/28 19:41:34;;;;;;;3.60;1.50;;;;;;;;;;8251997;28;20489;-75
2022/12/28 19:45:34;;;;;;;5.47;1.58;;;;;;;;;;8255988;28;20734;-75
2022/12/28 19:49:34;;;;;;;4.05;1.42;;;;;;;;;;8253908;28;20026;-75
2022/12/28 19:53:36;;;;;;;1.98;1.50;;;;;;;;;;8256631;28;20083;-76
2022/12/28 19:57:37;;;;;;;2.08;1.50;;;;;;;;;;8254615;28;20045;-75
2022/12/28 20:01:37;;;;;;;2.35;1.33;;;;;;;;;;8250358;28;20108;-76
2022/12/28 20:05:38;;;;;;;5.50;1.50;;;;;;;;;;8252781;28;20136;-76
2022/12/28 20:09:38;;;;;;;4.80;1.48;;;;;;;;;;8256509;28;20034;-76
2022/12/28 20:13:38;;;;;;;1.98;1.77;;;;;;;;;;8260528;28;20033;-76
2022/12/28 20:17:40;;;;;;;4.07;1.83;;;;;;;;;;8255292;28;20088;-75
2022/12/28 20:21:42;;;;;;;3.17;1.50;;;;;;;;;;8257603;28;20072;-76
2022/12/28 20:25:52;;;;;;;4.40;1.67;;;;;;;;;;8255265;28;20026;-76
2022/12/28 20:29:52;;;;;;;4.82;1.50;;;;;;;;;;8255208;28;20179;-76
2022/12/28 20:33:52;;;;;;;2.75;1.55;;;;;;;;;;8254203;28;20062;-77
2022/12/28 20:37:54;;;;;;;2.88;1.88;;;;;;;;;;8260047;28;20103;-76
2022/12/28 20:46:13;;;;;;;3.00;1.63;;;;;;;;;;8256554;28;20081;-76
2022/12/28 20:50:13;;;;;;;2.67;1.60;;;;;;;;;;8256213;28;20026;-76
2022/12/28 20:54:13;;;;;;;2.33;1.60;;;;;;;;;;8255315;28;20514;-76
2022/12/28 20:58:14;;;;;;;3.03;1.50;;;;;;;;;;8256796;28;20721;-76
2022/12/28 21:02:14;;;;;;;1.52;1.42;;;;;;;;;;8254081;28;20038;-76
2022/12/28 21:06:14;;;;;;;2.97;1.80;;;;;;;;;;8253950;28;20034;-76
2022/12/28 21:10:14;;;;;;;2.00;1.60;;;;;;;;;;8261102;28;20026;-76
2022/12/28 21:14:14;;;;;;;1.83;1.45;;;;;;;;;;8255055;28;20061;-75
2022/12/28 21:18:15;;;;;;;2.23;1.60;;;;;;;;;;8256004;28;20746;-76
2022/12/28 21:22:15;;;;;;;3.70;1.67;;;;;;;;;;8257372;28;20315;-75
2022/12/28 21:26:16;;;;;;;2.83;1.58;;;;;;;;;;8253416;28;20679;-75
2022/12/28 21:30:17;;;;;;;1.75;1.50;;;;;;;;;;8260675;28;20059;-75
2022/12/28 21:34:17;;;;;;;7.03;2.40;;;;;;;;;;8259481;28;20184;-75
2022/12/28 21:38:17;;;;;;;1.98;1.88;;;;;;;;;;8249575;28;20358;-75
2022/12/28 21:42:19;;;;;;;4.20;1.80;;;;;;;;;;8261445;28;20598;-76
2022/12/28 21:46:20;;;;;;;3.38;1.75;;;;;;;;;;8259082;28;20036;-76
2022/12/28 21:50:20;;;;;;;4.10;1.80;;;;;;;;;;8263711;28;20125;-76
2022/12/28 21:54:21;;;;;;;3.55;1.73;;;;;;;;;;8262805;28;20034;-76
2022/12/28 21:58:21;;;;;;;3.45;1.98;;;;;;;;;;8258070;28;20044;-76
2022/12/28 22:06:40;;;;;;;2.83;1.80;;;;;;;;;;8258874;28;21240;-76
2022/12/28 22:19:19;;;;;;;2.15;1.75;;;;;;;;;;8258767;28;20545;-75
2022/12/28 22:23:19;;;;;;;5.28;2.10;;;;;;;;;;8260739;28;20022;-76
2022/12/28 22:27:19;;;;;;;3.60;2.08;;;;;;;;;;8275386;28;20726;-76
2022/12/28 22:31:19;;;;;;;6.22;1.95;;;;;;;;;;8257520;28;20037;-75
2022/12/28 22:35:20;;;;;;;4.72;2.03;;;;;;;;;;8257737;28;20140;-76
2022/12/28 22:39:20;;;;;;;4.10;2.00;;;;;;;;;;8258009;28;20030;-76
2022/12/28 22:43:20;;;;;;;3.35;2.00;;;;;;;;;;8259488;28;20060;-76
2022/12/28 22:47:21;;;;;;;4.55;1.95;;;;;;;;;;8258401;28;20061;-75
2022/12/28 22:51:21;;;;;;;3.58;2.20;;;;;;;;;;8257274;28;20458;-75
2022/12/28 22:55:21;;;;;;;2.20;2.00;;;;;;;;;;8255623;28;20841;-74
2022/12/28 22:59:21;;;;;;;4.28;1.90;;;;;;;;;;8261500;28;20025;-75
2022/12/28 23:03:21;;;;;;;5.00;2.00;;;;;;;;;;8256313;28;20132;-76
2022/12/28 23:07:22;;;;;;;3.42;1.95;;;;;;;;;;8257978;28;20021;-76
2022/12/28 23:11:40;;;;;;;3.07;1.70;;;;;;;;;;8252603;28;20022;-75
2022/12/28 23:15:40;;;;;;;6.65;2.20;;;;;;;;;;8252460;28;20290;-76
2022/12/28 23:28:19;;;;;;;3.05;1.90;;;;;;;;;;8257915;28;21054;-76
2022/12/28 23:32:19;;;;;;;2.90;2.17;;;;;;;;;;8256760;28;20727;-75
2022/12/28 23:36:20;;;;;;;4.53;2.10;;;;;;;;;;8257619;28;20739;-76
2022/12/28 23:40:21;;;;;;;1.75;1.65;;;;;;;;;;8257611;28;20029;-76
2022/12/28 23:44:23;;;;;;;3.33;1.90;;;;;;;;;;8254371;28;20025;-75
2022/12/28 23:52:26;;;;;;;2.08;1.60;;;;;;;;;;8185814;28;20086;-63
2022/12/28 23:56:26;;;;;;;2.92;1.70;;;;;;;;;;8194462;28;20825;-64
